createdAt,value
2022-10-18T00:00:24.850Z,3.05
2022-10-18T00:02:52.403Z,4.03
2022-10-18T00:05:19.982Z,2.53
2022-10-18T00:07:47.551Z,2.75
2022-10-18T00:10:15.183Z,3.35
2022-10-18T00:12:42.770Z,3.40
2022-10-18T00:15:12.246Z,3.03
2022-10-18T00:17:41.191Z,3.00
2022-10-18T00:20:09.932Z,3.00
2022-10-18T00:22:38.806Z,2.97
2022-10-18T00:25:08.336Z,3.10
2022-10-18T00:27:36.580Z,3.20
2022-10-18T00:30:05.032Z,3.22
2022-10-18T00:32:37.248Z,3.92
2022-10-18T00:35:07.887Z,3.10
2022-10-18T00:37:36.259Z,4.07
2022-10-18T00:40:04.670Z,4.25
2022-10-18T00:42:34.577Z,5.90
2022-10-18T00:45:17.848Z,4.50
2022-10-18T00:47:49.610Z,4.32
2022-10-18T00:50:20.559Z,4.00
2022-10-18T00:52:53.202Z,3.60
2022-10-18T00:55:21.416Z,3.30
2022-10-18T00:57:50.564Z,2.80
2022-10-18T01:00:19.535Z,3.35
2022-10-18T01:02:48.081Z,3.05
2022-10-18T01:05:18.652Z,3.58
2022-10-18T01:08:06.683Z,3.50
2022-10-18T01:10:42.991Z,3.42
2022-10-18T01:13:27.133Z,2.70
2022-10-18T01:16:00.523Z,3.45
2022-10-18T01:18:35.989Z,3.30
2022-10-18T01:21:18.074Z,3.58
2022-10-18T01:24:15.569Z,3.45
2022-10-18T01:27:10.006Z,3.35
2022-10-18T01:29:48.794Z,3.03
2022-10-18T01:32:22.351Z,3.80
2022-10-18T01:34:53.712Z,3.60
2022-10-18T01:37:23.556Z,3.40
2022-10-18T01:39:55.424Z,3.22
2022-10-18T01:42:22.986Z,4.28
2022-10-18T01:44:53.102Z,3.83
2022-10-18T01:47:22.729Z,3.63
2022-10-18T01:49:50.312Z,3.85
2022-10-18T01:52:17.877Z,3.50
2022-10-18T01:54:49.969Z,3.47
2022-10-18T01:57:24.850Z,3.10
2022-10-18T01:59:59.152Z,3.40
2022-10-18T02:02:42.436Z,4.45
2022-10-18T02:05:19.040Z,4.78
2022-10-18T02:08:05.643Z,4.28
2022-10-18T02:10:46.635Z,4.60
2022-10-18T02:13:17.022Z,4.53
2022-10-18T02:15:48.892Z,4.85
2022-10-18T02:18:21.903Z,4.25
2022-10-18T02:20:50.976Z,5.00
2022-10-18T02:23:24.009Z,4.32
2022-10-18T02:25:52.939Z,4.68
2022-10-18T02:28:20.653Z,4.50
2022-10-18T02:30:54.413Z,4.30
2022-10-18T02:33:33.642Z,4.88
2022-10-18T02:36:08.348Z,3.97
2022-10-18T02:38:36.188Z,4.38
2022-10-18T02:43:39.799Z,4.88
2022-10-18T02:55:51.105Z,4.47
2022-10-18T03:05:14.908Z,4.15
2022-10-18T03:07:42.867Z,4.00
2022-10-18T03:10:11.028Z,4.18
2022-10-18T03:12:42.627Z,3.45
2022-10-18T03:26:28.195Z,4.25
2022-10-18T03:54:38.804Z,4.13
2022-10-18T03:57:20.997Z,3.63
2022-10-18T04:00:07.586Z,3.72
2022-10-18T04:18:46.083Z,4.07
2022-10-18T04:21:13.967Z,4.10
2022-10-18T04:26:34.286Z,4.18
2022-10-18T04:29:12.349Z,3.78
2022-10-18T05:07:05.321Z,4.68
2022-10-18T06:05:08.945Z,4.65
2022-10-18T06:52:20.923Z,4.32
2022-10-18T06:55:11.999Z,3.35
2022-10-18T07:00:49.374Z,5.22
2022-10-18T07:06:50.892Z,3.80
2022-10-18T07:15:51.058Z,4.20
2022-10-18T07:22:30.259Z,3.90
2022-10-18T07:54:42.907Z,3.40
2022-10-18T07:57:10.596Z,3.42
2022-10-18T07:59:38.785Z,3.28
2022-10-18T08:02:06.399Z,3.67
2022-10-18T08:04:34.028Z,2.95
2022-10-18T08:07:01.570Z,4.15
2022-10-18T08:09:29.336Z,3.45
2022-10-18T08:11:58.223Z,2.33
2022-10-18T08:14:25.741Z,2.03
2022-10-18T08:16:53.377Z,2.00
2022-10-18T08:19:20.892Z,2.08
2022-10-18T08:21:48.489Z,2.10
2022-10-18T08:24:16.078Z,2.05
2022-10-18T08:26:43.769Z,2.13
2022-10-18T08:29:31.677Z,2.30
2022-10-18T08:31:59.572Z,2.10
2022-10-18T08:34:27.218Z,1.83
2022-10-18T08:36:54.845Z,1.85
2022-10-18T08:39:22.509Z,2.30
2022-10-18T08:42:08.855Z,1.85
2022-10-18T08:44:44.887Z,2.35
2022-10-18T08:47:15.968Z,3.05
2022-10-18T08:49:47.562Z,2.30
2022-10-18T08:52:20.186Z,2.60
2022-10-18T08:54:56.637Z,2.60
2022-10-18T08:57:24.212Z,2.17
2022-10-18T08:59:53.163Z,1.90
2022-10-18T09:02:36.487Z,2.58
2022-10-18T09:05:14.361Z,2.40
2022-10-18T09:08:38.737Z,2.35
2022-10-18T09:11:16.357Z,3.33
2022-10-18T09:14:03.990Z,2.50
2022-10-18T09:16:41.435Z,2.92
2022-10-18T09:19:21.546Z,2.88
2022-10-18T09:21:52.740Z,2.35
2022-10-18T09:24:28.080Z,2.53
2022-10-18T09:27:01.873Z,2.80
2022-10-18T09:29:43.728Z,1.90
2022-10-18T09:32:25.442Z,2.20
2022-10-18T09:34:57.458Z,2.10
2022-10-18T09:37:28.182Z,2.00
2022-10-18T09:40:04.013Z,2.10
2022-10-18T09:42:37.539Z,1.83
2022-10-18T09:45:14.198Z,1.60
2022-10-18T09:47:48.478Z,1.70
2022-10-18T09:50:23.198Z,2.03
2022-10-18T09:52:58.651Z,1.80
2022-10-18T09:55:31.730Z,1.90
2022-10-18T09:58:02.842Z,1.73
2022-10-18T10:00:34.622Z,1.85
2022-10-18T10:05:35.484Z,1.85
2022-10-18T10:08:04.888Z,2.00
2022-10-18T10:10:35.383Z,2.10
2022-10-18T10:13:09.659Z,2.13
2022-10-18T10:15:42.391Z,2.00
2022-10-18T10:18:20.980Z,1.80
2022-10-18T10:20:51.425Z,1.80
2022-10-18T10:23:22.827Z,1.83
2022-10-18T10:25:52.849Z,1.85
2022-10-18T10:28:22.979Z,1.70
2022-10-18T10:30:51.169Z,1.65
2022-10-18T10:33:39.669Z,1.73
2022-10-18T10:36:18.307Z,1.50
2022-10-18T10:38:45.938Z,1.52
2022-10-18T10:41:21.578Z,1.60
2022-10-18T10:43:50.620Z,1.63
2022-10-18T10:46:23.012Z,1.60
2022-10-18T10:49:13.951Z,2.03
2022-10-18T10:51:43.629Z,3.15
2022-10-18T10:54:16.557Z,2.10
2022-10-18T10:56:55.226Z,3.17
2022-10-18T10:59:26.144Z,1.58
2022-10-18T11:02:20.678Z,2.17
2022-10-18T11:04:51.110Z,1.98
2022-10-18T11:07:25.656Z,2.00
2022-10-18T11:10:00.816Z,1.55
2022-10-18T11:12:34.527Z,2.00
2022-10-18T11:15:18.716Z,2.30
2022-10-18T11:20:33.805Z,2.45
2022-10-18T11:23:03.535Z,2.10
2022-10-18T11:26:01.364Z,1.90
2022-10-18T11:28:38.727Z,1.80
2022-10-18T11:31:18.224Z,1.48
2022-10-18T11:34:09.683Z,2.08
2022-10-18T11:37:02.288Z,2.42
2022-10-18T11:39:48.702Z,2.13
2022-10-18T11:42:25.580Z,2.42
2022-10-18T11:45:05.197Z,1.80
2022-10-18T11:47:42.305Z,1.77
2022-10-18T11:50:20.954Z,1.73
2022-10-18T11:53:03.332Z,1.80
2022-10-18T11:55:43.672Z,2.13
2022-10-18T11:58:28.068Z,2.20
2022-10-18T12:01:03.339Z,2.58
2022-10-18T12:03:51.711Z,2.53
2022-10-18T12:06:23.389Z,2.00
2022-10-18T12:08:59.772Z,2.33
2022-10-18T12:11:33.880Z,1.75
2022-10-18T12:14:05.037Z,1.73
2022-10-18T12:16:50.855Z,1.65
2022-10-18T12:19:26.900Z,2.28
2022-10-18T12:21:57.469Z,1.80
2022-10-18T12:24:31.749Z,1.63
2022-10-18T12:27:05.067Z,1.90
2022-10-18T12:29:38.761Z,1.42
2022-10-18T12:32:11.666Z,1.88
2022-10-18T12:34:45.020Z,1.55
2022-10-18T12:37:51.112Z,1.70
2022-10-18T12:40:24.350Z,2.22
2022-10-18T12:42:54.767Z,2.00
2022-10-18T12:45:29.368Z,1.70
2022-10-18T12:48:01.700Z,2.05
2022-10-18T12:50:36.145Z,2.10
2022-10-18T12:53:18.204Z,1.80
2022-10-18T12:55:49.245Z,2.15
2022-10-18T12:58:32.605Z,2.17
2022-10-18T13:01:03.005Z,1.75
2022-10-18T13:03:51.646Z,1.60
2022-10-18T13:06:19.773Z,2.10
2022-10-18T13:08:57.279Z,1.17
2022-10-18T13:12:03.797Z,1.25
2022-10-18T13:15:24.715Z,1.60
2022-10-18T13:18:12.491Z,1.50
2022-10-18T13:20:44.951Z,1.30
2022-10-18T13:23:51.164Z,1.48
2022-10-18T13:26:28.734Z,1.63
2022-10-18T13:29:18.294Z,1.60
2022-10-18T13:31:59.644Z,1.48
2022-10-18T13:34:41.208Z,2.10
2022-10-18T13:37:23.955Z,1.98
2022-10-18T13:40:15.307Z,1.58
2022-10-18T13:42:47.576Z,2.03
2022-10-18T13:45:45.544Z,1.90
2022-10-18T13:48:46.625Z,2.08
2022-10-18T13:51:31.256Z,2.10
2022-10-18T13:54:05.751Z,1.83
2022-10-18T13:56:53.351Z,1.95
2022-10-18T14:02:50.903Z,1.75
2022-10-18T14:05:37.633Z,2.25
2022-10-18T14:08:13.709Z,1.73
2022-10-18T14:11:02.312Z,2.40
2022-10-18T14:13:45.963Z,2.17
2022-10-18T14:16:28.947Z,2.08
2022-10-18T14:19:11.708Z,1.80
2022-10-18T14:21:44.259Z,2.15
2022-10-18T14:24:20.025Z,2.03
2022-10-18T14:26:47.894Z,2.35
2022-10-18T14:29:23.530Z,1.98
2022-10-18T14:31:55.580Z,1.92
2022-10-18T14:34:28.318Z,1.77
2022-10-18T14:36:56.124Z,1.83
2022-10-18T14:39:29.062Z,1.88
2022-10-18T14:41:58.551Z,1.73
2022-10-18T14:44:54.265Z,1.60
2022-10-18T14:47:31.576Z,1.75
2022-10-18T14:50:38.691Z,1.70
2022-10-18T14:53:46.565Z,1.95
2022-10-18T14:56:58.552Z,1.77
2022-10-18T14:59:40.268Z,2.30
2022-10-18T15:02:35.870Z,2.17
2022-10-18T15:05:42.887Z,1.95
2022-10-18T15:09:00.210Z,1.65
2022-10-18T15:12:02.308Z,1.48
2022-10-18T15:14:57.121Z,1.27
2022-10-18T15:24:48.142Z,1.30
2022-10-18T15:27:37.719Z,1.20
2022-10-18T15:30:22.517Z,1.25
2022-10-18T15:33:15.746Z,2.03
2022-10-18T15:35:57.318Z,1.23
2022-10-18T15:38:34.753Z,1.23
2022-10-18T15:41:42.365Z,1.30
2022-10-18T15:44:59.792Z,1.45
2022-10-18T15:51:37.469Z,1.50
2022-10-18T15:57:02.089Z,1.33
2022-10-18T16:03:29.464Z,1.42
2022-10-18T16:06:36.404Z,1.40
2022-10-18T16:12:23.384Z,1.50
2022-10-18T16:15:13.520Z,1.48
2022-10-18T16:18:03.258Z,1.55
2022-10-18T16:20:44.649Z,1.38
2022-10-18T16:23:41.829Z,1.38
2022-10-18T16:26:28.928Z,1.33
2022-10-18T16:32:44.546Z,1.70
2022-10-18T16:35:34.664Z,1.85
2022-10-18T16:38:35.099Z,1.52
2022-10-18T16:41:45.212Z,1.95
2022-10-18T16:44:40.296Z,2.10
2022-10-18T16:47:44.522Z,1.73
2022-10-18T16:50:49.480Z,1.65
2022-10-18T16:53:42.306Z,1.70
2022-10-18T16:56:43.100Z,2.10
2022-10-18T16:59:37.078Z,1.63
2022-10-18T17:05:41.329Z,2.17
2022-10-18T17:10:53.215Z,2.17
2022-10-18T19:02:22.909Z,2.47
2022-10-18T19:23:38.621Z,2.97
2022-10-18T22:53:40.599Z,3.65
2022-10-18T22:56:10.583Z,2.80
2022-10-18T22:58:38.559Z,2.20
2022-10-18T23:01:09.205Z,2.47
2022-10-18T23:03:38.075Z,2.25
2022-10-18T23:06:07.382Z,1.92
2022-10-18T23:08:35.253Z,1.95
2022-10-18T23:11:04.431Z,2.40
2022-10-18T23:13:34.124Z,2.78
2022-10-18T23:16:04.846Z,2.90
2022-10-18T23:18:33.493Z,2.85
2022-10-18T23:21:03.147Z,2.40
2022-10-18T23:23:35.811Z,2.90
2022-10-18T23:26:07.228Z,2.58
2022-10-18T23:28:45.766Z,2.92
2022-10-18T23:31:20.675Z,2.63
2022-10-18T23:34:00.398Z,3.00
2022-10-18T23:36:34.087Z,2.65
2022-10-18T23:39:07.012Z,3.10
2022-10-18T23:41:40.518Z,2.85
2022-10-18T23:44:12.116Z,3.03
2022-10-18T23:46:45.104Z,3.13
2022-10-18T23:49:21.731Z,3.08
2022-10-18T23:51:54.739Z,3.35
2022-10-18T23:54:24.466Z,2.97
2022-10-18T23:56:59.340Z,2.85
